Terminal Aerodrome Forecast
Issued by NWS

Home | Current Version | Previous Version | Text Only | Print | Product List | Glossary On
Versions: 1 2 3 4 5 6 7 8 9 10 11 12 13 14 15 16
000
FTUS46 KMTR 042300
TAFSTS
TAF
KSTS 042330Z 0500/0524 17009KT P6SM SKC
     FM050300 16005KT P6SM SKC
     FM050700 VRB03KT P6SM BKN010
     FM051800 VRB03KT P6SM SKC
     FM052100 19008KT P6SM SKC=

USA.gov is the U.S. government's official web portal to all federal, state and local government web resources and services.